Time;durP1;ratioP1;P1;durP2;ratioP2;P2;SDS_P1;SDS_P2;PMS_P1;PMS_P2;Temp;Humidity;BMP_temperature;BMP_pressure;BME280_temperature;BME280_humidity;BME280_pressure;Samples;Min_cycle;Max_cycle;Signal;HPM_P1;HPM_P2
2022/08/08 00:00:21;;;;;;;11.07;4.55;;;;;;;7.56;100.00;102283.91;4986834;28;20505;-80
2022/08/08 00:03:13;;;;;;;8.27;3.75;;;;;;;7.55;100.00;102288.44;5023992;28;20036;-80
2022/08/08 00:05:59;;;;;;;8.30;2.88;;;;;;;7.51;100.00;102276.22;5037712;28;20037;-81
2022/08/08 00:08:40;;;;;;;9.95;3.72;;;;;;;7.56;100.00;102271.38;5026235;28;20034;-80
2022/08/08 00:11:30;;;;;;;15.02;3.42;;;;;;;7.50;100.00;102274.53;5009134;28;20043;-81
2022/08/08 00:14:03;;;;;;;23.77;4.43;;;;;;;7.45;100.00;102277.56;4984915;28;20033;-81
2022/08/08 00:17:01;;;;;;;7.78;3.72;;;;;;;7.34;100.00;102269.53;5025865;28;20025;-80
2022/08/08 00:19:37;;;;;;;7.97;3.00;;;;;;;7.28;100.00;102278.03;4983608;28;20133;-80
2022/08/08 00:22:08;;;;;;;8.40;3.00;;;;;;;7.22;100.00;102273.13;4981012;28;20045;-81
2022/08/08 00:24:41;;;;;;;7.30;3.30;;;;;;;7.18;100.00;102272.50;4992003;28;20068;-80
2022/08/08 00:27:10;;;;;;;13.93;3.92;;;;;;;7.24;100.00;102271.19;5021094;28;20041;-81
2022/08/08 00:29:50;;;;;;;10.77;3.47;;;;;;;7.25;100.00;102267.53;5005257;28;20158;-80
2022/08/08 00:32:21;;;;;;;10.05;3.60;;;;;;;7.36;100.00;102280.13;5009194;28;20080;-80
2022/08/08 00:35:19;;;;;;;10.25;3.92;;;;;;;7.38;100.00;102272.81;5023588;28;20396;-80
2022/08/08 00:38:09;;;;;;;10.90;4.18;;;;;;;7.39;100.00;102280.72;5001069;28;20050;-80
2022/08/08 00:40:40;;;;;;;19.38;3.97;;;;;;;7.31;100.00;102261.72;5022191;28;20452;-79
2022/08/08 00:43:26;;;;;;;11.43;3.75;;;;;;;7.29;100.00;102266.34;5022101;28;20498;-79
2022/08/08 00:46:12;;;;;;;18.23;4.13;;;;;;;7.23;100.00;102266.81;5005227;28;20656;-79
2022/08/08 00:48:55;;;;;;;9.30;3.72;;;;;;;7.26;100.00;102263.91;5018654;28;20025;-79
2022/08/08 00:51:41;;;;;;;9.27;3.75;;;;;;;7.22;100.00;102262.41;4990219;28;20064;-79
2022/08/08 00:54:32;;;;;;;8.35;3.67;;;;;;;7.13;100.00;102263.97;5021590;28;20052;-80
2022/08/08 00:57:19;;;;;;;7.90;3.47;;;;;;;7.12;100.00;102272.09;5021357;28;20494;-79
2022/08/08 01:00:05;;;;;;;15.15;3.60;;;;;;;7.08;100.00;102270.66;5019626;28;20056;-79
2022/08/08 01:02:50;;;;;;;10.00;3.53;;;;;;;6.76;100.00;102209.75;5018915;28;20116;-79
2022/08/08 01:05:41;;;;;;;9.02;3.45;;;;;;;7.09;100.00;102258.97;5005303;28;20038;-79
2022/08/08 01:08:25;;;;;;;12.70;3.85;;;;;;;6.91;100.00;102248.72;5016337;28;20080;-79
2022/08/08 01:11:06;;;;;;;9.65;3.88;;;;;;;6.92;100.00;102255.75;5024762;28;20028;-79
2022/08/08 01:13:47;;;;;;;12.15;3.83;;;;;;;6.78;100.00;102255.94;5022920;28;20038;-79
2022/08/08 01:16:50;;;;;;;7.97;3.70;;;;;;;6.54;100.00;102232.75;5017698;28;20041;-80
2022/08/08 01:19:27;;;;;;;7.82;3.45;;;;;;;6.46;100.00;102240.47;5004278;28;20474;-80
2022/08/08 01:22:28;;;;;;;8.65;3.78;;;;;;;6.39;100.00;102245.41;5022070;28;20034;-79
2022/08/08 01:25:31;;;;;;;11.48;3.05;;;;;;;6.42;100.00;102248.81;5037076;28;20065;-79
2022/08/08 01:28:28;;;;;;;8.40;3.85;;;;;;;6.39;100.00;102249.91;5012687;28;20142;-79
2022/08/08 01:31:02;;;;;;;9.45;3.67;;;;;;;6.41;100.00;102255.13;5002299;28;20200;-80
2022/08/08 01:33:40;;;;;;;12.43;3.70;;;;;;;6.42;100.00;102255.00;5026868;28;20148;-80
2022/08/08 01:36:35;;;;;;;9.52;4.28;;;;;;;6.39;100.00;102249.91;5022438;28;20057;-81
2022/08/08 01:39:38;;;;;;;6.97;3.67;;;;;;;6.38;100.00;102251.72;4990301;28;20041;-79
2022/08/08 01:42:18;;;;;;;6.22;3.25;;;;;;;6.30;100.00;102256.78;5025521;28;20041;-79
2022/08/08 01:44:57;;;;;;;9.38;4.10;;;;;;;6.26;100.00;102249.09;5003129;28;20052;-79
2022/08/08 01:48:01;;;;;;;10.48;3.88;;;;;;;6.29;100.00;102257.72;4990085;28;20102;-79
2022/08/08 01:50:57;;;;;;;8.38;3.83;;;;;;;6.24;100.00;102254.53;5022604;28;20126;-80
2022/08/08 01:53:37;;;;;;;8.55;3.38;;;;;;;5.92;100.00;102203.41;4990008;28;20042;-80
2022/08/08 01:56:14;;;;;;;7.15;3.28;;;;;;;6.27;100.00;102245.44;5007387;28;20129;-79
2022/08/08 01:58:52;;;;;;;10.35;3.38;;;;;;;6.30;100.00;102246.09;5031895;28;20116;-79
2022/08/08 02:01:24;;;;;;;9.50;4.22;;;;;;;6.31;100.00;102254.94;5020980;28;20088;-79
2022/08/08 02:04:00;;;;;;;12.18;3.85;;;;;;;6.27;100.00;102258.78;5023668;28;20030;-79
2022/08/08 02:06:56;;;;;;;12.85;3.53;;;;;;;6.38;100.00;102245.53;5007301;28;20037;-79
2022/08/08 02:09:43;;;;;;;7.75;3.38;;;;;;;6.33;100.00;102228.97;5005378;28;20037;-79
2022/08/08 02:12:28;;;;;;;28.30;4.43;;;;;;;6.53;100.00;102249.72;5022451;28;20037;-80
2022/08/08 02:15:08;;;;;;;9.27;3.10;;;;;;;6.54;100.00;102245.25;4996119;28;20387;-79
2022/08/08 02:17:43;;;;;;;8.00;3.78;;;;;;;6.50;100.00;102249.94;5003848;28;20372;-79
2022/08/08 02:20:23;;;;;;;6.68;3.65;;;;;;;6.47;100.00;102252.00;5004113;28;20182;-79
2022/08/08 02:23:04;;;;;;;11.80;4.30;;;;;;;6.43;100.00;102247.84;5008639;28;20061;-80
2022/08/08 02:25:57;;;;;;;11.10;3.90;;;;;;;6.44;100.00;102244.22;5036170;28;21073;-79
2022/08/08 02:28:48;;;;;;;15.60;4.30;;;;;;;6.34;100.00;102225.34;4990706;28;20044;-79
2022/08/08 02:31:39;;;;;;;7.47;3.92;;;;;;;6.54;100.00;102259.47;5029467;28;20048;-79
2022/08/08 02:34:08;;;;;;;13.45;4.32;;;;;;;6.56;100.00;102260.22;5010970;28;20041;-79
2022/08/08 02:36:36;;;;;;;9.27;3.65;;;;;;;6.59;100.00;102265.31;5022894;28;20136;-80
2022/08/08 02:39:36;;;;;;;8.77;3.83;;;;;;;6.66;100.00;102267.53;5026244;28;20132;-79
2022/08/08 02:42:23;;;;;;;8.48;3.58;;;;;;;6.63;100.00;102265.94;5009496;28;20382;-79
2022/08/08 02:45:26;;;;;;;9.73;4.00;;;;;;;6.56;100.00;102252.19;5021330;28;20026;-79
2022/08/08 02:48:24;;;;;;;8.95;3.92;;;;;;;6.73;100.00;102260.78;5026107;28;20029;-79
2022/08/08 02:51:21;;;;;;;13.43;4.43;;;;;;;6.84;100.00;102260.81;5007966;28;20041;-80
2022/08/08 02:54:32;;;;;;;9.38;4.20;;;;;;;6.84;100.00;102266.19;5009231;28;20064;-80
2022/08/08 02:57:07;;;;;;;;;;;;;;;6.92;100.00;102266.44;5020842;28;20074;-77
2022/08/08 02:59:51;;;;;;;10.45;3.40;;;;;;;6.93;100.00;102270.84;5025699;28;19917;-79
2022/08/08 03:02:54;;;;;;;9.30;3.70;;;;;;;6.96;100.00;102273.28;5023362;28;20068;-79
2022/08/08 03:05:48;;;;;;;12.85;4.00;;;;;;;6.99;100.00;102266.84;5030711;28;20544;-79
2022/08/08 03:08:26;;;;;;;11.77;3.88;;;;;;;7.02;100.00;102275.50;5011197;28;20191;-79
2022/08/08 03:11:16;;;;;;;10.90;4.00;;;;;;;7.03;100.00;102269.16;5009831;28;20045;-79
2022/08/08 03:14:08;;;;;;;10.13;4.75;;;;;;;7.00;100.00;102272.06;5026831;28;20494;-79
2022/08/08 03:16:38;;;;;;;8.93;3.90;;;;;;;6.94;100.00;102259.16;5011124;28;20691;-79
2022/08/08 03:19:41;;;;;;;11.93;4.18;;;;;;;7.00;100.00;102264.06;5022985;28;20026;-79
2022/08/08 03:22:09;;;;;;;14.38;4.38;;;;;;;6.74;100.00;102217.03;5006425;28;20042;-80
2022/08/08 03:24:34;;;;;;;11.85;4.28;;;;;;;7.03;100.00;102255.78;5008238;28;20033;-79
2022/08/08 03:27:35;;;;;;;8.75;4.00;;;;;;;6.98;100.00;102265.97;5026479;28;20037;-79
2022/08/08 03:30:06;;;;;;;8.98;4.32;;;;;;;6.74;100.00;102233.06;5005037;28;20030;-79
2022/08/08 03:35:16;;;;;;;9.02;4.25;;;;;;;6.81;100.00;102277.94;5021214;28;20120;-79
2022/08/08 03:37:42;;;;;;;8.90;3.78;;;;;;;6.76;100.00;102274.75;5010465;28;20141;-79
2022/08/08 03:40:08;;;;;;;10.75;3.65;;;;;;;6.73;100.00;102274.16;5022555;28;20053;-79
2022/08/08 03:42:36;;;;;;;9.07;4.05;;;;;;;6.48;100.00;102245.69;4990331;28;20064;-78
2022/08/08 03:45:17;;;;;;;11.73;3.95;;;;;;;6.55;100.00;102277.19;5005747;28;20030;-78
2022/08/08 03:47:44;;;;;;;7.93;3.88;;;;;;;6.37;100.00;102257.16;5003393;28;20037;-79
2022/08/08 03:50:18;;;;;;;11.48;3.67;;;;;;;6.31;100.00;102262.97;5022702;28;20480;-79
2022/08/08 03:52:43;;;;;;;8.63;4.00;;;;;;;6.36;100.00;102276.84;5016232;28;20117;-78
2022/08/08 03:55:11;;;;;;;7.03;3.60;;;;;;;6.31;100.00;102273.66;5028255;28;20111;-78
2022/08/08 03:57:37;;;;;;;9.93;4.13;;;;;;;6.23;100.00;102257.31;5005385;28;20045;-79
2022/08/08 04:00:11;;;;;;;8.05;3.70;;;;;;;6.36;100.00;102274.16;5016343;28;20034;-79
2022/08/08 04:02:37;;;;;;;14.88;4.78;;;;;;;6.38;100.00;102264.22;5019009;28;20026;-79
2022/08/08 04:05:06;;;;;;;10.25;3.80;;;;;;;6.57;100.00;102277.09;5026742;28;20026;-78
2022/08/08 04:07:38;;;;;;;11.30;4.38;;;;;;;6.74;100.00;102286.53;5026978;28;20462;-77
2022/08/08 04:10:06;;;;;;;14.75;4.38;;;;;;;6.79;100.00;102271.84;5011194;28;20556;-79
2022/08/08 04:12:32;;;;;;;10.73;4.30;;;;;;;6.98;100.00;102274.00;5040247;28;20052;-78
2022/08/08 04:14:58;;;;;;;8.57;3.38;;;;;;;7.04;100.00;102278.06;5004536;28;20467;-78
2022/08/08 04:17:23;;;;;;;9.80;4.25;;;;;;;7.02;100.00;102282.66;4987045;28;20037;-79
2022/08/08 04:19:49;;;;;;;11.13;3.95;;;;;;;6.98;100.00;102279.34;5011902;28;20116;-79
2022/08/08 04:22:15;;;;;;;8.10;3.70;;;;;;;6.96;100.00;102280.44;4990494;28;20114;-79
2022/08/08 04:24:40;;;;;;;12.77;4.85;;;;;;;6.94;100.00;102280.56;5034026;28;20533;-78
2022/08/08 04:27:06;;;;;;;10.48;4.40;;;;;;;6.94;100.00;102275.22;5021388;28;20037;-79
2022/08/08 04:29:32;;;;;;;9.52;3.83;;;;;;;6.96;100.00;102280.44;5008744;28;20033;-78
2022/08/08 04:31:58;;;;;;;12.40;3.90;;;;;;;6.94;100.00;102288.59;5002504;28;20116;-78
2022/08/08 04:34:23;;;;;;;11.65;4.30;;;;;;;6.88;100.00;102294.41;4988464;28;20038;-79
2022/08/08 04:36:49;;;;;;;8.18;3.70;;;;;;;6.82;100.00;102285.00;5021385;28;20483;-78
2022/08/08 04:39:15;;;;;;;8.50;3.78;;;;;;;6.85;100.00;102289.25;5004659;28;20119;-78
2022/08/08 04:41:40;;;;;;;7.93;3.55;;;;;;;6.84;100.00;102292.91;5023862;28;20490;-79
2022/08/08 04:44:06;;;;;;;10.75;3.45;;;;;;;6.81;100.00;102290.47;4999718;28;20046;-79
2022/08/08 04:46:32;;;;;;;6.70;3.17;;;;;;;6.75;100.00;102296.28;4990226;28;20033;-78
2022/08/08 04:48:57;;;;;;;7.40;3.60;;;;;;;6.66;100.00;102299.63;5006081;28;20048;-79
2022/08/08 04:51:23;;;;;;;7.03;3.35;;;;;;;6.52;100.00;102293.47;4990729;28;20033;-78
2022/08/08 04:53:49;;;;;;;8.55;3.83;;;;;;;6.46;100.00;102293.91;5024560;28;20382;-79
2022/08/08 04:56:16;;;;;;;8.48;3.65;;;;;;;6.45;100.00;102304.69;5009037;28;20033;-78
2022/08/08 04:58:45;;;;;;;8.48;3.47;;;;;;;6.45;100.00;102302.88;5000665;28;20570;-79
2022/08/08 05:01:10;;;;;;;8.00;4.03;;;;;;;6.48;100.00;102305.31;4994344;28;20034;-79
2022/08/08 05:03:36;;;;;;;11.82;3.58;;;;;;;6.48;100.00;102305.31;5009689;28;20033;-79
2022/08/08 05:06:02;;;;;;;10.68;3.83;;;;;;;6.48;100.00;102307.16;4996054;28;20115;-79
2022/08/08 05:08:28;;;;;;;8.77;3.70;;;;;;;6.45;100.00;102300.22;4989786;28;20124;-78
2022/08/08 05:10:53;;;;;;;9.18;3.90;;;;;;;6.50;100.00;102307.91;5008688;28;20514;-78
2022/08/08 05:13:20;;;;;;;8.48;3.67;;;;;;;6.50;100.00;102310.56;5012749;28;20040;-79
2022/08/08 05:15:45;;;;;;;7.80;3.17;;;;;;;6.51;100.00;102302.44;5007567;28;21789;-78
2022/08/08 05:18:11;;;;;;;8.20;4.07;;;;;;;6.63;100.00;102319.41;5016966;28;20061;-78
2022/08/08 05:20:37;;;;;;;11.68;3.75;;;;;;;6.73;100.00;102311.56;4998073;28;20033;-79
2022/08/08 05:23:03;;;;;;;8.60;3.75;;;;;;;6.76;100.00;102301.50;5004049;28;20033;-78
2022/08/08 05:25:30;;;;;;;10.32;3.97;;;;;;;6.92;100.00;102313.72;4991647;28;20047;-78
2022/08/08 05:27:55;;;;;;;9.40;4.20;;;;;;;7.00;100.00;102312.19;4986754;28;20041;-78
2022/08/08 05:30:21;;;;;;;7.90;3.33;;;;;;;7.03;100.00;102314.63;5005478;28;20150;-79
2022/08/08 05:32:47;;;;;;;16.50;4.20;;;;;;;7.11;100.00;102321.25;5008487;28;20063;-78
2022/08/08 05:35:13;;;;;;;15.20;4.40;;;;;;;7.18;100.00;102317.13;5024260;28;20414;-78
2022/08/08 05:37:51;;;;;;;17.85;4.63;;;;;;;7.15;100.00;102296.81;4998457;28;20029;-80
2022/08/08 05:40:17;;;;;;;18.80;4.10;;;;;;;7.35;100.00;102319.38;5014901;28;20037;-78
2022/08/08 05:42:44;;;;;;;13.57;4.03;;;;;;;7.36;100.00;102310.41;5031083;28;20044;-78
2022/08/08 05:45:14;;;;;;;15.30;3.42;;;;;;;7.45;100.00;102312.34;5006630;28;20388;-78
2022/08/08 05:47:40;;;;;;;12.20;4.50;;;;;;;7.56;100.00;102316.88;4994923;28;20029;-78
2022/08/08 05:50:07;;;;;;;10.20;4.00;;;;;;;7.74;100.00;102322.66;5005180;28;20033;-79
2022/08/08 05:52:35;;;;;;;18.13;4.95;;;;;;;7.78;100.00;102307.19;5012633;28;20499;-78
2022/08/08 05:55:05;;;;;;;16.10;3.53;;;;;;;7.96;100.00;102318.28;5024490;28;20029;-78
2022/08/08 05:57:33;;;;;;;10.82;4.72;;;;;;;8.01;100.00;102306.25;5014540;28;20065;-78
2022/08/08 06:00:02;;;;;;;16.30;5.50;;;;;;;8.20;100.00;102313.66;5015499;28;20038;-78
2022/08/08 06:05:18;;;;;;;12.65;5.10;;;;;;;8.51;100.00;102312.09;5041026;28;20068;-78
2022/08/08 06:07:45;;;;;;;12.30;4.90;;;;;;;8.58;100.00;102305.25;5021069;28;20516;-78
2022/08/08 06:10:11;;;;;;;13.95;5.65;;;;;;;8.73;100.00;102305.84;5025247;28;20034;-79
2022/08/08 06:12:44;;;;;;;16.20;4.65;;;;;;;8.89;100.00;102307.25;5005852;28;20030;-78
2022/08/08 06:15:10;;;;;;;11.65;4.63;;;;;;;8.77;100.00;102271.56;5004811;28;20093;-78
2022/08/08 06:17:39;;;;;;;13.95;5.43;;;;;;;9.00;100.00;102300.03;4994862;28;20037;-79
2022/08/08 06:20:12;;;;;;;9.88;4.82;;;;;;;9.23;100.00;102321.38;5019184;28;20047;-78
2022/08/08 06:22:39;;;;;;;11.45;5.10;;;;;;;9.33;100.00;102316.97;5058735;28;20372;-79
2022/08/08 06:25:05;;;;;;;11.48;4.43;;;;;;;9.45;100.00;102323.97;5025227;28;20034;-79
2022/08/08 06:27:37;;;;;;;7.97;4.07;;;;;;;9.57;100.00;102331.97;5013987;28;20030;-78
2022/08/08 06:30:06;;;;;;;10.68;4.25;;;;;;;9.71;100.00;102330.78;5005474;28;20045;-78
2022/08/08 06:32:55;;;;;;;13.55;4.50;;;;;;;9.85;100.00;102339.38;5003133;28;20555;-78
2022/08/08 06:35:22;;;;;;;7.22;3.15;;;;;;;10.08;100.00;102333.81;5003802;28;20124;-79
2022/08/08 06:37:52;;;;;;;8.63;3.58;;;;;;;10.35;100.00;102335.97;5010089;28;20072;-78
2022/08/08 06:40:20;;;;;;;10.05;3.97;;;;;;;10.70;100.00;102356.19;5006975;28;20115;-79
2022/08/08 06:43:07;;;;;;;9.27;3.40;;;;;;;10.90;100.00;102357.94;5017174;28;20038;-79
2022/08/08 06:45:33;;;;;;;6.25;3.30;;;;;;;11.00;100.00;102353.41;5002053;28;20056;-79
2022/08/08 06:47:59;;;;;;;10.48;3.15;;;;;;;11.33;100.00;102356.69;4999045;28;20487;-79
2022/08/08 06:50:27;;;;;;;6.72;3.33;;;;;;;11.48;100.00;102357.09;4993056;28;20402;-79
2022/08/08 06:52:52;;;;;;;9.70;3.17;;;;;;;11.60;100.00;102358.66;5002683;28;20036;-79
2022/08/08 06:55:24;;;;;;;6.57;2.90;;;;;;;11.58;100.00;102366.03;5002829;28;20046;-79
2022/08/08 06:57:50;;;;;;;6.22;3.00;;;;;;;11.76;100.00;102366.16;5056001;28;20420;-79
2022/08/08 07:00:16;;;;;;;5.93;2.80;;;;;;;11.78;100.00;102374.94;5016704;28;20042;-79
2022/08/08 07:02:49;;;;;;;8.93;3.38;;;;;;;11.84;100.00;102385.16;4999174;28;20116;-79
2022/08/08 07:05:15;;;;;;;9.67;3.43;;;;;;;11.93;100.00;102377.22;5011516;28;20084;-79
2022/08/08 07:08:00;;;;;;;7.57;3.15;;;;;;;12.01;100.00;102378.22;4995201;28;20480;-79
2022/08/08 07:10:32;;;;;;;12.68;3.35;;;;;;;12.12;100.00;102376.31;5022274;28;20029;-79
2022/08/08 07:13:20;;;;;;;13.45;3.85;;;;;;;12.34;100.00;102378.66;5003389;28;20091;-78
2022/08/08 07:15:59;;;;;;;16.58;3.55;;;;;;;12.48;100.00;102374.63;5005904;28;20041;-79
2022/08/08 07:18:49;;;;;;;15.25;3.85;;;;;;;12.47;100.00;102359.44;5000649;28;20041;-79
2022/08/08 07:21:22;;;;;;;19.98;3.92;;;;;;;12.72;100.00;102374.09;5012099;28;20041;-79
2022/08/08 07:24:16;;;;;;;25.52;4.43;;;;;;;12.86;100.00;102368.19;5023664;28;20188;-79
2022/08/08 07:26:45;;;;;;;12.68;3.70;;;;;;;13.13;100.00;102377.25;4991720;28;20483;-79
2022/08/08 07:29:11;;;;;;;19.73;3.75;;;;;;;13.44;100.00;102369.63;5028487;28;20057;-79
2022/08/08 07:31:37;;;;;;;13.02;3.70;;;;;;;13.72;100.00;102367.66;5012623;28;20399;-79
2022/08/08 07:34:03;;;;;;;13.80;4.18;;;;;;;13.99;100.00;102366.66;5009216;28;20030;-79
2022/08/08 07:36:30;;;;;;;5.88;2.92;;;;;;;14.05;100.00;102367.88;5012125;28;20033;-80
2022/08/08 07:38:57;;;;;;;10.82;4.28;;;;;;;14.04;100.00;102355.38;5004428;28;20034;-79
2022/08/08 07:41:24;;;;;;;10.50;4.00;;;;;;;14.32;100.00;102364.19;5004916;28;20026;-79
2022/08/08 07:43:53;;;;;;;7.35;4.18;;;;;;;14.95;100.00;102363.78;4994295;28;20044;-79
2022/08/08 07:46:19;;;;;;;8.45;4.57;;;;;;;15.61;100.00;102366.53;5026553;28;20159;-79
2022/08/08 07:48:44;;;;;;;9.82;4.43;;;;;;;15.67;100.00;102355.03;4994454;28;20425;-79
2022/08/08 07:51:10;;;;;;;8.00;4.45;;;;;;;15.79;100.00;102333.84;5009786;28;20034;-79
2022/08/08 07:53:44;;;;;;;5.60;2.97;;;;;;;16.56;100.00;102344.97;4990322;28;20049;-79
2022/08/08 07:56:12;;;;;;;7.05;3.65;;;;;;;16.33;100.00;102360.38;5025680;28;20041;-79
2022/08/08 07:58:41;;;;;;;5.00;3.63;;;;;;;16.05;100.00;102363.47;5013671;28;20044;-79
2022/08/08 08:01:16;;;;;;;4.20;2.83;;;;;;;15.80;100.00;102362.69;5024551;28;20034;-80
2022/08/08 08:03:48;;;;;;;5.78;2.90;;;;;;;15.94;100.00;102374.69;4983536;28;20030;-77
2022/08/08 08:06:14;;;;;;;5.40;2.80;;;;;;;16.08;100.00;102363.13;5028012;28;20033;-77
2022/08/08 08:08:45;;;;;;;5.70;3.35;;;;;;;16.46;100.00;102371.53;5022215;28;20479;-77
2022/08/08 08:11:12;;;;;;;6.43;3.50;;;;;;;16.72;100.00;102354.91;5022114;28;20065;-78
2022/08/08 08:13:55;;;;;;;19.38;3.88;;;;;;;17.33;99.77;102365.94;4993730;28;20041;-77
2022/08/08 08:16:23;;;;;;;17.60;4.07;;;;;;;17.70;100.00;102369.72;5026957;28;20037;-77
2022/08/08 08:18:57;;;;;;;4.03;2.80;;;;;;;18.00;99.48;102370.69;5009744;28;20033;-79
2022/08/08 08:21:42;;;;;;;6.45;4.03;;;;;;;18.14;95.09;102377.16;4997605;28;20037;-77
2022/08/08 08:24:08;;;;;;;4.60;3.50;;;;;;;18.22;95.36;102383.34;5002340;28;20402;-76
2022/08/08 08:26:33;;;;;;;6.38;3.80;;;;;;;18.24;93.72;102380.47;4993824;28;20370;-78
2022/08/08 08:28:59;;;;;;;5.45;3.80;;;;;;;18.27;91.94;102387.41;5023841;28;20398;-78
2022/08/08 08:31:25;;;;;;;6.78;3.67;;;;;;;18.31;91.83;102384.13;5027383;28;20041;-77
2022/08/08 08:33:52;;;;;;;6.00;4.05;;;;;;;18.91;88.85;102378.63;5018356;28;20065;-78
2022/08/08 08:36:18;;;;;;;5.68;3.63;;;;;;;19.99;84.56;102383.91;5024016;28;20108;-78
2022/08/08 08:38:44;;;;;;;6.35;3.92;;;;;;;20.77;77.51;102325.47;4989137;28;20124;-77
2022/08/08 08:41:13;;;;;;;5.22;3.53;;;;;;;21.86;76.85;102373.66;5004925;28;20104;-78
2022/08/08 08:43:39;;;;;;;5.68;3.80;;;;;;;21.86;75.57;102374.50;5002648;28;20048;-77
2022/08/08 08:46:10;;;;;;;7.57;4.28;;;;;;;22.51;71.52;102388.28;4993019;28;20371;-78
2022/08/08 08:48:37;;;;;;;4.00;3.50;;;;;;;23.37;68.13;102362.34;4994410;28;20025;-77
2022/08/08 08:51:04;;;;;;;4.93;4.13;;;;;;;23.74;66.39;102378.97;5011347;28;20356;-78
2022/08/08 08:53:51;;;;;;;6.22;3.80;;;;;;;24.31;62.33;102385.16;4993574;28;20045;-79
2022/08/08 08:56:24;;;;;;;5.63;3.58;;;;;;;23.42;62.73;102368.00;5023082;28;20060;-79
2022/08/08 08:58:50;;;;;;;7.40;4.13;;;;;;;24.90;62.17;102385.56;5037581;28;20108;-76
2022/08/08 09:01:19;;;;;;;7.85;3.78;;;;;;;27.01;53.69;102383.97;4987031;28;20041;-77
2022/08/08 09:03:47;;;;;;;5.72;4.05;;;;;;;26.68;51.78;102385.53;5020171;28;20116;-76
2022/08/08 09:06:29;;;;;;;5.35;3.70;;;;;;;28.43;48.32;102386.59;4984192;28;20038;-77
2022/08/08 09:09:03;;;;;;;6.65;3.65;;;;;;;29.82;45.52;102386.13;5004182;28;20032;-77
2022/08/08 09:11:33;;;;;;;3.63;3.33;;;;;;;31.28;42.75;102383.47;5002320;28;20041;-78
2022/08/08 09:14:01;;;;;;;4.60;3.10;;;;;;;30.45;42.06;102374.03;5010661;28;20467;-78
2022/08/08 09:16:28;;;;;;;5.85;3.22;;;;;;;29.02;44.02;102377.63;5000652;28;20033;-78
2022/08/08 09:18:54;;;;;;;8.93;3.70;;;;;;;27.89;46.34;102372.53;5020945;28;20030;-78
2022/08/08 09:21:21;;;;;;;5.15;3.70;;;;;;;26.80;47.73;102371.69;4990471;28;20489;-77
2022/08/08 09:23:47;;;;;;;9.25;4.15;;;;;;;25.90;50.33;102359.25;4994519;28;20040;-78
2022/08/08 09:26:23;;;;;;;8.43;4.20;;;;;;;25.60;53.39;102375.84;5011749;28;20029;-77
2022/08/08 09:28:48;;;;;;;4.47;3.97;;;;;;;26.06;49.47;102376.97;5019997;28;20072;-80
2022/08/08 09:31:45;;;;;;;5.78;4.00;;;;;;;26.83;47.23;102375.88;5003643;28;20095;-77
2022/08/08 09:34:13;;;;;;;8.52;3.80;;;;;;;26.51;46.96;102368.03;5004874;28;20060;-78
2022/08/08 09:36:45;;;;;;;8.70;3.28;;;;;;;26.13;47.62;102388.72;4995003;28;20045;-77
2022/08/08 09:39:11;;;;;;;6.97;4.15;;;;;;;25.19;48.93;102372.03;5025718;28;20029;-78
2022/08/08 09:41:40;;;;;;;5.68;3.65;;;;;;;23.90;51.29;102380.31;5007327;28;20068;-79
2022/08/08 09:44:25;;;;;;;10.07;4.43;;;;;;;22.64;55.92;102381.91;5006234;28;20034;-80
2022/08/08 09:46:52;;;;;;;9.68;3.80;;;;;;;21.93;58.21;102356.13;5026965;28;20087;-77
2022/08/08 09:49:19;;;;;;;5.68;4.10;;;;;;;22.23;60.01;102380.38;5010800;28;20038;-79
2022/08/08 09:51:52;;;;;;;10.70;4.18;;;;;;;22.96;56.46;102376.50;4997080;28;20029;-79
2022/08/08 09:54:22;;;;;;;6.65;3.97;;;;;;;24.29;52.30;102373.59;5010330;28;22719;-79
2022/08/08 09:56:53;;;;;;;7.05;4.07;;;;;;;25.75;45.91;102380.88;5003162;28;20033;-79
2022/08/08 09:59:30;;;;;;;5.53;3.60;;;;;;;25.98;44.38;102386.44;5020904;28;20045;-80
2022/08/08 10:01:58;;;;;;;5.03;3.60;;;;;;;25.13;46.13;102383.97;5011344;28;20029;-79
2022/08/08 10:04:26;;;;;;;8.00;3.90;;;;;;;25.06;47.26;102388.72;5010765;28;20041;-79
2022/08/08 10:06:52;;;;;;;8.20;3.38;;;;;;;25.96;45.25;102371.22;5018427;28;20077;-80
2022/08/08 10:09:29;;;;;;;9.63;4.15;;;;;;;26.21;43.38;102377.31;5020943;28;20042;-78
2022/08/08 10:11:55;;;;;;;5.03;4.10;;;;;;;26.29;42.70;102392.66;5022350;28;20030;-79
2022/08/08 10:14:33;;;;;;;8.68;3.83;;;;;;;26.73;42.15;102380.13;5020218;28;20132;-80
2022/08/08 10:16:58;;;;;;;7.75;3.85;;;;;;;26.25;42.57;102374.91;4989881;28;20037;-79
2022/08/08 10:19:40;;;;;;;6.88;4.20;;;;;;;25.49;46.63;102336.19;4990619;28;20396;-78
2022/08/08 10:22:07;;;;;;;6.15;3.80;;;;;;;26.25;43.40;102372.16;4993677;28;20435;-80
2022/08/08 10:24:33;;;;;;;6.80;3.90;;;;;;;26.52;43.22;102361.47;5005773;28;20061;-80
2022/08/08 10:27:03;;;;;;;5.82;4.20;;;;;;;27.94;41.74;102370.69;4991206;28;20036;-79
2022/08/08 10:29:35;;;;;;;5.25;3.88;;;;;;;28.90;38.19;102362.00;5041143;28;20343;-80
2022/08/08 10:34:58;;;;;;;6.38;4.00;;;;;;;29.15;36.80;102366.16;5019571;28;20391;-79
2022/08/08 10:37:27;;;;;;;5.90;3.20;;;;;;;29.56;36.62;102349.91;5039519;28;20033;-80
2022/08/08 10:39:54;;;;;;;4.82;3.65;;;;;;;30.14;35.17;102350.84;5006880;28;20091;-79
2022/08/08 10:42:23;;;;;;;5.07;4.13;;;;;;;31.20;32.79;102348.72;5012797;28;20029;-80
2022/08/08 10:44:57;;;;;;;9.82;4.13;;;;;;;31.44;32.76;102351.81;5008651;28;20087;-81
2022/08/08 10:47:23;;;;;;;4.68;3.15;;;;;;;32.02;31.25;102358.97;5005853;28;20450;-81
2022/08/08 10:49:56;;;;;;;6.20;3.85;;;;;;;31.63;32.38;102362.38;4996811;28;20120;-81
2022/08/08 10:52:31;;;;;;;6.07;3.05;;;;;;;30.73;33.43;102357.22;5005393;28;20148;-80
2022/08/08 10:55:19;;;;;;;6.30;3.40;;;;;;;30.71;33.78;102351.09;5005333;28;20057;-78
2022/08/08 10:57:47;;;;;;;6.30;3.55;;;;;;;28.94;36.20;102345.69;4994344;28;20033;-78
2022/08/08 11:00:29;;;;;;;9.90;3.90;;;;;;;27.30;40.03;102365.47;5012606;28;20026;-78
2022/08/08 11:02:55;;;;;;;;;;;;;;;26.15;41.72;102369.19;5006898;28;20368;-79
2022/08/08 11:05:26;;;;;;;6.97;4.20;;;;;;;25.04;44.04;102358.69;5033822;28;19927;-79
2022/08/08 11:07:56;;;;;;;7.55;3.88;;;;;;;24.85;45.40;102346.91;5012424;28;20033;-78
2022/08/08 11:10:23;;;;;;;7.63;4.20;;;;;;;24.24;47.48;102372.56;5013495;28;20033;-78
2022/08/08 11:12:58;;;;;;;8.98;4.70;;;;;;;28.40;39.92;102371.34;5030811;28;20072;-78
2022/08/08 11:15:27;;;;;;;5.40;3.10;;;;;;;29.47;35.82;102365.31;5023539;28;20029;-79
2022/08/08 11:17:53;;;;;;;5.63;3.63;;;;;;;29.30;35.28;102376.56;5007982;28;20038;-80
2022/08/08 11:20:21;;;;;;;6.22;3.72;;;;;;;30.17;34.94;102361.41;5027231;28;20022;-78
2022/08/08 11:22:51;;;;;;;7.90;3.97;;;;;;;32.11;32.33;102376.75;4996153;28;20037;-78
2022/08/08 11:25:17;;;;;;;4.45;3.75;;;;;;;34.28;28.09;102376.66;5010146;28;20544;-78
2022/08/08 11:27:45;;;;;;;8.82;3.10;;;;;;;32.99;29.72;102376.09;5027623;28;20053;-78
2022/08/08 11:30:11;;;;;;;5.15;3.13;;;;;;;33.18;29.00;102373.47;5014032;28;20033;-79
2022/08/08 11:32:41;;;;;;;5.28;3.25;;;;;;;31.13;31.47;102378.72;4996379;28;20033;-78
2022/08/08 11:35:12;;;;;;;4.57;2.95;;;;;;;28.65;35.73;102364.47;5026763;28;20075;-78
2022/08/08 11:37:42;;;;;;;3.65;2.35;;;;;;;27.94;36.63;102351.31;4989495;28;20184;-79
2022/08/08 11:40:10;;;;;;;6.53;3.58;;;;;;;26.23;40.76;102366.06;5014272;28;21024;-79
2022/08/08 11:42:37;;;;;;;6.82;3.63;;;;;;;25.29;42.25;102361.28;5013324;28;20022;-78
2022/08/08 11:45:05;;;;;;;5.63;3.47;;;;;;;24.86;43.12;102323.81;4994856;28;20107;-77
2022/08/08 11:47:32;;;;;;;5.40;3.67;;;;;;;28.55;35.64;102348.56;5027532;28;20029;-79
2022/08/08 11:50:05;;;;;;;4.35;3.20;;;;;;;30.47;33.50;102343.25;4989809;28;20049;-78
2022/08/08 11:52:31;;;;;;;4.65;3.03;;;;;;;28.32;35.54;102348.81;4993255;28;20033;-78
2022/08/08 11:54:57;;;;;;;7.47;3.60;;;;;;;27.07;38.44;102344.34;5037031;28;20479;-78
2022/08/08 11:57:28;;;;;;;5.47;3.20;;;;;;;25.96;41.68;102341.75;5020544;28;20041;-78
2022/08/08 11:59:59;;;;;;;3.90;3.40;;;;;;;27.71;38.71;102337.72;5029486;28;20057;-78